Time;durP1;ratioP1;P1;durP2;ratioP2;P2;SDS_P1;SDS_P2;PMS_P1;PMS_P2;Temp;Humidity;BMP_temperature;BMP_pressure;BME280_temperature;BME280_humidity;BME280_pressure;Samples;Min_cycle;Max_cycle;Signal;HPM_P1;HPM_P2
2023/08/01 00:01:09;;;;;;;8.43;6.53;;;;;;;;;;5094871;28;20035;-59
2023/08/01 00:03:34;;;;;;;9.73;6.70;;;;;;;;;;5090006;28;20028;-62
2023/08/01 00:05:59;;;;;;;7.83;6.63;;;;;;;;;;5091236;28;20115;-63
2023/08/01 00:08:25;;;;;;;10.00;7.50;;;;;;;;;;5083810;28;20048;-61
2023/08/01 00:10:50;;;;;;;11.03;7.93;;;;;;;;;;5086217;28;20016;-65
2023/08/01 00:13:17;;;;;;;14.23;8.13;;;;;;;;;;5085695;28;20330;-65
2023/08/01 00:15:43;;;;;;;11.32;9.07;;;;;;;;;;5090990;28;20032;-65
2023/08/01 00:18:08;;;;;;;13.15;10.63;;;;;;;;;;5086929;28;20051;-64
2023/08/01 00:20:33;;;;;;;14.07;11.43;;;;;;;;;;5087887;28;20454;-62
2023/08/01 00:23:01;;;;;;;13.98;12.48;;;;;;;;;;5092600;28;20020;-67
2023/08/01 00:25:26;;;;;;;17.15;13.65;;;;;;;;;;5110848;27;20019;-68
2023/08/01 00:27:52;;;;;;;16.17;13.37;;;;;;;;;;5091634;28;20031;-68
2023/08/01 00:30:17;;;;;;;16.63;14.38;;;;;;;;;;5093068;28;20028;-67
2023/08/01 00:32:45;;;;;;;16.63;14.00;;;;;;;;;;5093593;27;20019;-68
2023/08/01 00:35:10;;;;;;;18.05;15.32;;;;;;;;;;5090589;28;20077;-68
2023/08/01 00:37:37;;;;;;;15.73;14.23;;;;;;;;;;5087691;28;20704;-66
2023/08/01 00:40:04;;;;;;;15.20;13.13;;;;;;;;;;5089948;28;20288;-68
2023/08/01 00:42:35;;;;;;;14.98;11.95;;;;;;;;;;5093756;28;20028;-67
2023/08/01 00:45:00;;;;;;;13.20;11.75;;;;;;;;;;5098815;27;20058;-67
2023/08/01 00:47:25;;;;;;;15.13;12.93;;;;;;;;;;5086149;28;20530;-68
2023/08/01 00:49:51;;;;;;;14.50;13.00;;;;;;;;;;5088408;28;20019;-66
2023/08/01 00:52:16;;;;;;;16.20;13.32;;;;;;;;;;5094253;28;20103;-66
2023/08/01 00:54:42;;;;;;;14.55;13.05;;;;;;;;;;5093692;28;20068;-68
2023/08/01 00:57:08;;;;;;;16.17;13.53;;;;;;;;;;5088847;28;20116;-67
2023/08/01 00:59:34;;;;;;;13.25;11.85;;;;;;;;;;5095166;28;20057;-68
2023/08/01 01:02:00;;;;;;;12.07;10.80;;;;;;;;;;5094794;28;20073;-69
2023/08/01 01:04:26;;;;;;;12.48;10.02;;;;;;;;;;5094434;28;20526;-68
2023/08/01 01:06:55;;;;;;;12.32;11.02;;;;;;;;;;5090033;28;20036;-65
2023/08/01 01:09:20;;;;;;;13.55;12.05;;;;;;;;;;5091435;28;20577;-67
2023/08/01 01:11:46;;;;;;;9.27;7.93;;;;;;;;;;5091291;28;20044;-67
2023/08/01 01:14:12;;;;;;;11.70;9.27;;;;;;;;;;5094392;28;20551;-67
2023/08/01 01:16:37;;;;;;;11.25;8.80;;;;;;;;;;5095866;28;20058;-67
2023/08/01 01:19:06;;;;;;;11.10;9.70;;;;;;;;;;5089665;28;20051;-67
2023/08/01 01:21:33;;;;;;;11.35;9.30;;;;;;;;;;5088658;28;20261;-63
2023/08/01 01:24:02;;;;;;;13.98;10.20;;;;;;;;;;5090554;28;20095;-66
2023/08/01 01:26:28;;;;;;;9.98;8.65;;;;;;;;;;5093846;28;20019;-65
2023/08/01 01:28:54;;;;;;;10.32;8.82;;;;;;;;;;5097995;28;20049;-63
2023/08/01 01:31:19;;;;;;;10.60;8.43;;;;;;;;;;5090277;28;20024;-66
2023/08/01 01:33:45;;;;;;;10.57;7.43;;;;;;;;;;5091083;28;20077;-61
2023/08/01 01:36:11;;;;;;;8.90;7.50;;;;;;;;;;5089665;28;20023;-64
2023/08/01 01:38:36;;;;;;;10.75;8.27;;;;;;;;;;5095836;28;20062;-64
2023/08/01 01:41:03;;;;;;;12.27;9.50;;;;;;;;;;5094723;28;20032;-62
2023/08/01 01:43:31;;;;;;;11.85;9.98;;;;;;;;;;5089461;28;20392;-62
2023/08/01 01:45:58;;;;;;;10.95;8.77;;;;;;;;;;5089338;28;20034;-64
2023/08/01 01:48:26;;;;;;;9.57;7.88;;;;;;;;;;5086567;28;20388;-63
2023/08/01 01:50:54;;;;;;;9.85;8.60;;;;;;;;;;5087011;28;20020;-63
2023/08/01 01:53:19;;;;;;;9.60;8.00;;;;;;;;;;5085242;28;20107;-63
2023/08/01 01:55:47;;;;;;;9.20;7.80;;;;;;;;;;5089762;28;20024;-64
2023/08/01 01:58:14;;;;;;;10.82;8.68;;;;;;;;;;5088675;28;20028;-64
2023/08/01 02:00:39;;;;;;;8.90;7.55;;;;;;;;;;5093466;28;20047;-63
2023/08/01 02:03:10;;;;;;;9.00;7.90;;;;;;;;;;5089210;28;20104;-62
2023/08/01 02:05:35;;;;;;;8.68;7.45;;;;;;;;;;5090811;28;20249;-65
2023/08/01 02:08:00;;;;;;;10.30;6.78;;;;;;;;;;5094317;28;20069;-64
2023/08/01 02:10:28;;;;;;;7.07;5.60;;;;;;;;;;5088251;28;20027;-66
2023/08/01 02:12:53;;;;;;;8.43;5.90;;;;;;;;;;5090152;28;20675;-64
2023/08/01 02:15:18;;;;;;;7.57;5.80;;;;;;;;;;5087001;28;20077;-63
2023/08/01 02:17:44;;;;;;;10.20;6.03;;;;;;;;;;5085645;28;20278;-62
2023/08/01 02:20:09;;;;;;;8.17;6.10;;;;;;;;;;5087471;28;20030;-64
2023/08/01 02:22:34;;;;;;;7.13;6.05;;;;;;;;;;5084933;28;20024;-64
2023/08/01 02:25:00;;;;;;;9.30;6.72;;;;;;;;;;5093673;28;20134;-64
2023/08/01 02:27:30;;;;;;;8.97;6.70;;;;;;;;;;5093749;28;20039;-63
2023/08/01 02:29:57;;;;;;;8.80;6.63;;;;;;;;;;5090243;28;20257;-64
2023/08/01 02:32:23;;;;;;;8.35;6.80;;;;;;;;;;5093629;28;20020;-65
2023/08/01 02:34:48;;;;;;;7.40;5.75;;;;;;;;;;5092674;28;20011;-63
2023/08/01 02:37:16;;;;;;;8.05;5.90;;;;;;;;;;5087909;28;20020;-63
2023/08/01 02:39:41;;;;;;;9.20;6.57;;;;;;;;;;5095200;28;20043;-65
2023/08/01 02:42:06;;;;;;;9.30;6.97;;;;;;;;;;5084815;28;20111;-64
2023/08/01 02:44:31;;;;;;;7.93;6.20;;;;;;;;;;5093374;28;20991;-64
2023/08/01 02:46:57;;;;;;;8.35;6.00;;;;;;;;;;5093794;28;20130;-66
2023/08/01 02:49:24;;;;;;;9.00;5.60;;;;;;;;;;5090688;28;20115;-68
2023/08/01 02:51:50;;;;;;;8.25;5.82;;;;;;;;;;5090033;28;20023;-64
2023/08/01 02:54:15;;;;;;;7.87;6.10;;;;;;;;;;5085102;28;20034;-61
2023/08/01 02:56:41;;;;;;;7.37;5.60;;;;;;;;;;5093051;28;20992;-64
2023/08/01 02:59:09;;;;;;;8.25;5.65;;;;;;;;;;5094075;28;20080;-64
2023/08/01 03:01:35;;;;;;;7.95;5.93;;;;;;;;;;5091343;28;20023;-65
2023/08/01 03:04:02;;;;;;;8.23;5.50;;;;;;;;;;5086488;28;20031;-64
2023/08/01 03:06:27;;;;;;;7.97;5.82;;;;;;;;;;5087433;28;20039;-66
2023/08/01 03:08:52;;;;;;;6.90;5.50;;;;;;;;;;5084289;28;20125;-64
2023/08/01 03:11:18;;;;;;;9.67;6.27;;;;;;;;;;5084121;28;20016;-66
2023/08/01 03:13:45;;;;;;;8.93;6.20;;;;;;;;;;5091209;28;20757;-63
2023/08/01 03:16:11;;;;;;;8.60;6.30;;;;;;;;;;5087135;28;20039;-64
2023/08/01 03:18:36;;;;;;;9.00;6.20;;;;;;;;;;5090511;28;20044;-66
2023/08/01 03:21:03;;;;;;;7.97;6.07;;;;;;;;;;5082810;28;20032;-67
2023/08/01 03:23:29;;;;;;;7.95;6.10;;;;;;;;;;5084498;28;20080;-65
2023/08/01 03:25:54;;;;;;;8.85;5.80;;;;;;;;;;5092173;28;20800;-63
2023/08/01 03:28:19;;;;;;;8.20;5.80;;;;;;;;;;5087123;28;20024;-63
2023/08/01 03:30:45;;;;;;;8.07;5.70;;;;;;;;;;5087916;28;20257;-66
2023/08/01 03:33:10;;;;;;;7.28;5.40;;;;;;;;;;5096177;28;20273;-64
2023/08/01 03:35:35;;;;;;;8.60;5.45;;;;;;;;;;5084228;28;20393;-63
2023/08/01 03:38:03;;;;;;;7.30;4.83;;;;;;;;;;5095103;28;20051;-65
2023/08/01 03:40:28;;;;;;;6.28;4.85;;;;;;;;;;5088486;28;20028;-63
2023/08/01 03:42:53;;;;;;;7.43;4.90;;;;;;;;;;5095550;28;20016;-65
2023/08/01 03:45:19;;;;;;;7.10;4.80;;;;;;;;;;5090351;28;20030;-64
2023/08/01 03:47:44;;;;;;;5.72;4.43;;;;;;;;;;5089730;28;20035;-65
2023/08/01 03:50:09;;;;;;;7.33;4.90;;;;;;;;;;5092010;28;20100;-64
2023/08/01 03:52:34;;;;;;;6.35;4.80;;;;;;;;;;5085006;28;20038;-64
2023/08/01 03:55:00;;;;;;;7.03;4.87;;;;;;;;;;5089923;28;20383;-63
2023/08/01 03:57:25;;;;;;;6.65;4.65;;;;;;;;;;5086061;28;20042;-65
2023/08/01 03:59:50;;;;;;;7.43;5.13;;;;;;;;;;5092457;28;20053;-63
2023/08/01 04:02:16;;;;;;;6.73;4.53;;;;;;;;;;5096352;28;20106;-64
2023/08/01 04:04:43;;;;;;;7.37;4.40;;;;;;;;;;5089683;28;20247;-63
2023/08/01 04:07:08;;;;;;;6.63;4.20;;;;;;;;;;5090326;28;20038;-64
2023/08/01 04:09:34;;;;;;;6.00;4.50;;;;;;;;;;5089473;28;20016;-64
2023/08/01 04:11:59;;;;;;;6.80;4.13;;;;;;;;;;5095305;28;20094;-65
2023/08/01 04:14:27;;;;;;;6.38;4.30;;;;;;;;;;5089072;28;20725;-62
2023/08/01 04:16:52;;;;;;;7.05;4.10;;;;;;;;;;5096741;28;20072;-66
2023/08/01 04:19:17;;;;;;;7.13;4.43;;;;;;;;;;5095480;28;20051;-64
2023/08/01 04:21:43;;;;;;;7.40;4.37;;;;;;;;;;5086719;28;20015;-64
2023/08/01 04:24:08;;;;;;;5.93;4.47;;;;;;;;;;5086551;28;20618;-63
2023/08/01 04:26:33;;;;;;;7.20;4.57;;;;;;;;;;5090901;28;20439;-63
2023/08/01 04:29:01;;;;;;;7.32;4.75;;;;;;;;;;5091242;28;20031;-63
2023/08/01 04:31:26;;;;;;;7.43;5.05;;;;;;;;;;5094318;28;20103;-63
2023/08/01 04:33:56;;;;;;;6.30;4.37;;;;;;;;;;5095948;28;20016;-63
2023/08/01 04:36:24;;;;;;;6.50;5.25;;;;;;;;;;5088705;27;20027;-61
2023/08/01 04:38:49;;;;;;;6.93;5.43;;;;;;;;;;5087896;28;20024;-66
2023/08/01 04:41:15;;;;;;;7.57;5.37;;;;;;;;;;5093626;28;20032;-63
2023/08/01 04:43:40;;;;;;;7.78;5.63;;;;;;;;;;5091157;28;20062;-62
2023/08/01 04:46:08;;;;;;;7.90;4.90;;;;;;;;;;5091034;28;20098;-65
2023/08/01 04:48:33;;;;;;;7.00;4.53;;;;;;;;;;5098406;28;20292;-64
2023/08/01 04:50:58;;;;;;;7.17;5.10;;;;;;;;;;5094881;28;20016;-64
2023/08/01 04:53:24;;;;;;;6.70;4.60;;;;;;;;;;5097642;28;20267;-64
2023/08/01 04:55:50;;;;;;;7.93;5.27;;;;;;;;;;5097161;28;20925;-62
2023/08/01 04:58:15;;;;;;;7.13;5.60;;;;;;;;;;5093175;28;22253;-63
2023/08/01 05:00:43;;;;;;;7.23;5.73;;;;;;;;;;5096679;28;20098;-64
2023/08/01 05:03:09;;;;;;;7.68;5.75;;;;;;;;;;5086543;28;20020;-61
2023/08/01 05:05:34;;;;;;;8.77;6.15;;;;;;;;;;5098175;28;20050;-63
2023/08/01 05:07:59;;;;;;;8.17;5.73;;;;;;;;;;5096939;28;20120;-64
2023/08/01 05:10:26;;;;;;;9.33;6.17;;;;;;;;;;5093804;28;20055;-62
2023/08/01 05:12:52;;;;;;;8.63;5.50;;;;;;;;;;5096806;28;20032;-60
2023/08/01 05:15:17;;;;;;;7.13;5.70;;;;;;;;;;5092805;28;20018;-63
2023/08/01 05:17:42;;;;;;;9.10;6.00;;;;;;;;;;5089027;28;20046;-63
2023/08/01 05:20:11;;;;;;;7.25;5.90;;;;;;;;;;5096033;28;20043;-62
2023/08/01 05:22:36;;;;;;;8.50;5.85;;;;;;;;;;5093879;28;20080;-63
2023/08/01 05:25:04;;;;;;;8.17;5.73;;;;;;;;;;5095707;28;20601;-62
2023/08/01 05:27:30;;;;;;;7.40;5.50;;;;;;;;;;5087986;28;20313;-61
2023/08/01 05:29:55;;;;;;;7.95;5.78;;;;;;;;;;5089032;28;20127;-61
2023/08/01 05:32:22;;;;;;;6.73;5.60;;;;;;;;;;5091106;28;20024;-64
2023/08/01 05:34:50;;;;;;;6.65;5.05;;;;;;;;;;5088585;28;20407;-65
2023/08/01 05:37:15;;;;;;;7.50;5.78;;;;;;;;;;5090106;28;20051;-63
2023/08/01 05:39:40;;;;;;;8.67;5.80;;;;;;;;;;5082159;28;20032;-64
2023/08/01 05:42:08;;;;;;;8.33;5.43;;;;;;;;;;5087403;28;20028;-62
2023/08/01 05:44:34;;;;;;;7.22;5.20;;;;;;;;;;5096677;28;20031;-62
2023/08/01 05:46:59;;;;;;;6.82;5.07;;;;;;;;;;5097185;28;20027;-62
2023/08/01 05:49:24;;;;;;;6.72;5.45;;;;;;;;;;5094656;28;20415;-65
2023/08/01 05:51:51;;;;;;;7.00;5.03;;;;;;;;;;5089832;28;20024;-65
2023/08/01 05:54:17;;;;;;;7.72;4.85;;;;;;;;;;5093108;28;20149;-62
2023/08/01 05:56:42;;;;;;;6.20;4.75;;;;;;;;;;5093740;28;20098;-62
2023/08/01 05:59:10;;;;;;;7.03;4.90;;;;;;;;;;5084913;28;20032;-62
2023/08/01 06:01:35;;;;;;;7.35;4.43;;;;;;;;;;5091895;28;20023;-62
2023/08/01 06:04:00;;;;;;;5.77;4.03;;;;;;;;;;5088614;28;20023;-61
2023/08/01 06:06:25;;;;;;;7.40;4.78;;;;;;;;;;5084795;28;20311;-63
2023/08/01 06:08:51;;;;;;;5.93;3.97;;;;;;;;;;5090561;28;20015;-65
2023/08/01 06:11:17;;;;;;;7.00;3.88;;;;;;;;;;5085430;28;20850;-62
2023/08/01 06:13:42;;;;;;;6.28;4.32;;;;;;;;;;5087772;28;20030;-64
2023/08/01 06:16:12;;;;;;;6.40;4.57;;;;;;;;;;5087070;28;20830;-62
2023/08/01 06:18:37;;;;;;;5.88;4.50;;;;;;;;;;5082798;28;20359;-61
2023/08/01 06:21:02;;;;;;;6.80;5.07;;;;;;;;;;5084814;28;20019;-62
2023/08/01 06:23:28;;;;;;;5.80;4.00;;;;;;;;;;5089061;28;20129;-62
2023/08/01 06:25:53;;;;;;;6.33;3.90;;;;;;;;;;5089265;28;20036;-63
2023/08/01 06:28:18;;;;;;;6.50;4.55;;;;;;;;;;5092157;28;20322;-65
2023/08/01 06:30:43;;;;;;;7.40;5.10;;;;;;;;;;5082339;28;20020;-64
2023/08/01 06:33:09;;;;;;;7.00;4.80;;;;;;;;;;5087290;28;20989;-63
2023/08/01 06:35:34;;;;;;;6.47;5.00;;;;;;;;;;5094426;28;20016;-61
2023/08/01 06:37:59;;;;;;;6.43;4.07;;;;;;;;;;5089013;28;20253;-62
2023/08/01 06:40:25;;;;;;;6.37;4.10;;;;;;;;;;5088088;28;20293;-61
2023/08/01 06:42:50;;;;;;;6.63;4.40;;;;;;;;;;5092894;28;20394;-60
2023/08/01 06:45:15;;;;;;;6.03;4.25;;;;;;;;;;5093525;28;20114;-64
2023/08/01 06:47:41;;;;;;;6.47;4.30;;;;;;;;;;5093510;28;20019;-64
2023/08/01 06:50:06;;;;;;;6.90;4.53;;;;;;;;;;5087479;28;21169;-63
2023/08/01 06:52:31;;;;;;;6.68;4.40;;;;;;;;;;5096111;28;20250;-63
2023/08/01 06:54:57;;;;;;;6.15;4.22;;;;;;;;;;5090514;28;20028;-64
2023/08/01 06:57:24;;;;;;;7.03;4.40;;;;;;;;;;5093697;28;20046;-65
2023/08/01 06:59:49;;;;;;;7.43;4.35;;;;;;;;;;5089603;28;20270;-62
2023/08/01 07:02:15;;;;;;;7.00;4.67;;;;;;;;;;5086877;28;20683;-61
2023/08/01 07:04:40;;;;;;;6.90;4.60;;;;;;;;;;5092859;28;20047;-63
2023/08/01 07:07:06;;;;;;;7.43;4.60;;;;;;;;;;5085147;28;20095;-61
2023/08/01 07:09:31;;;;;;;6.38;4.20;;;;;;;;;;5088355;28;20261;-64
2023/08/01 07:11:56;;;;;;;6.00;3.93;;;;;;;;;;5092585;28;20826;-62
2023/08/01 07:14:22;;;;;;;6.10;3.87;;;;;;;;;;5084936;28;20315;-63
2023/08/01 07:16:47;;;;;;;6.17;4.40;;;;;;;;;;5083778;28;20020;-63
2023/08/01 07:19:12;;;;;;;5.60;4.20;;;;;;;;;;5082035;28;20389;-61
2023/08/01 07:21:37;;;;;;;5.93;4.30;;;;;;;;;;5084846;28;20031;-62
2023/08/01 07:24:03;;;;;;;6.77;4.90;;;;;;;;;;5077686;28;20777;-63
2023/08/01 07:26:33;;;;;;;7.50;4.90;;;;;;;;;;5084432;28;20180;-63
2023/08/01 07:29:03;;;;;;;6.28;4.97;;;;;;;;;;5077574;28;20459;-61
2023/08/01 07:31:28;;;;;;;6.50;5.20;;;;;;;;;;5080585;28;20123;-62
2023/08/01 07:33:54;;;;;;;8.48;5.32;;;;;;;;;;5082896;28;20480;-60
2023/08/01 07:36:21;;;;;;;6.50;5.13;;;;;;;;;;5090875;28;20030;-62
2023/08/01 07:38:49;;;;;;;6.85;5.40;;;;;;;;;;5081336;28;20261;-62
2023/08/01 07:41:14;;;;;;;7.38;5.40;;;;;;;;;;5083558;28;20085;-60
2023/08/01 07:43:39;;;;;;;6.63;5.07;;;;;;;;;;5079666;28;20645;-61
2023/08/01 07:46:04;;;;;;;7.20;5.77;;;;;;;;;;5081644;28;20346;-62
2023/08/01 07:48:30;;;;;;;8.13;4.97;;;;;;;;;;5083831;28;20022;-60
2023/08/01 07:50:58;;;;;;;6.93;5.45;;;;;;;;;;5083816;28;20012;-63
2023/08/01 07:53:23;;;;;;;8.27;4.85;;;;;;;;;;5079139;28;20085;-61
2023/08/01 07:55:48;;;;;;;6.70;5.10;;;;;;;;;;5082101;28;20012;-59
2023/08/01 07:58:13;;;;;;;8.17;5.00;;;;;;;;;;5080468;28;20076;-61
2023/08/01 08:00:39;;;;;;;7.43;4.40;;;;;;;;;;5080750;28;20530;-60
2023/08/01 08:03:05;;;;;;;7.90;5.13;;;;;;;;;;5086700;28;20028;-60
2023/08/01 08:05:30;;;;;;;9.10;7.65;;;;;;;;;;5081511;28;20368;-61
2023/08/01 08:07:58;;;;;;;8.27;5.55;;;;;;;;;;5081967;28;20023;-61
2023/08/01 08:10:26;;;;;;;8.88;5.90;;;;;;;;;;5085265;28;20756;-60
2023/08/01 08:12:51;;;;;;;8.10;6.50;;;;;;;;;;5081132;28;20292;-62
2023/08/01 08:15:17;;;;;;;10.73;6.67;;;;;;;;;;5080411;28;20838;-61
2023/08/01 08:17:42;;;;;;;7.78;5.15;;;;;;;;;;5079871;28;20280;-61
2023/08/01 08:20:07;;;;;;;5.85;4.00;;;;;;;;;;5081965;28;20022;-62
2023/08/01 08:22:36;;;;;;;7.78;4.18;;;;;;;;;;5086295;28;20417;-62
2023/08/01 08:25:01;;;;;;;6.85;4.10;;;;;;;;;;5080732;28;20016;-61
2023/08/01 08:27:26;;;;;;;8.33;5.40;;;;;;;;;;5083102;28;20024;-60
2023/08/01 08:29:51;;;;;;;6.00;4.27;;;;;;;;;;5080767;28;20559;-62
2023/08/01 08:32:17;;;;;;;7.30;3.95;;;;;;;;;;5089839;28;20250;-60
2023/08/01 08:34:42;;;;;;;6.30;3.60;;;;;;;;;;5082153;28;20020;-62
2023/08/01 08:37:12;;;;;;;6.30;3.90;;;;;;;;;;5081519;28;20104;-61
2023/08/01 08:39:37;;;;;;;6.13;3.78;;;;;;;;;;5085150;28;20295;-62
2023/08/01 08:42:04;;;;;;;6.28;3.75;;;;;;;;;;5087272;28;20050;-61
2023/08/01 08:44:34;;;;;;;6.50;3.53;;;;;;;;;;5084028;28;20587;-59
2023/08/01 08:47:02;;;;;;;5.65;3.45;;;;;;;;;;5082493;28;20024;-62
2023/08/01 08:49:27;;;;;;;5.88;3.83;;;;;;;;;;5079317;28;20016;-61
2023/08/01 08:51:56;;;;;;;7.00;3.90;;;;;;;;;;5079228;28;20020;-60
2023/08/01 08:54:22;;;;;;;6.63;3.80;;;;;;;;;;5082319;28;20031;-60
2023/08/01 08:56:51;;;;;;;7.32;3.83;;;;;;;;;;5087979;28;20051;-65
2023/08/01 08:59:16;;;;;;;5.80;4.00;;;;;;;;;;5086566;28;20036;-61
2023/08/01 09:01:41;;;;;;;7.00;4.10;;;;;;;;;;5079486;28;20027;-62
2023/08/01 09:04:06;;;;;;;6.32;4.20;;;;;;;;;;5080138;28;20357;-63
2023/08/01 09:06:34;;;;;;;8.68;4.45;;;;;;;;;;5080637;28;20059;-59
2023/08/01 09:09:04;;;;;;;7.18;4.20;;;;;;;;;;5081818;28;20418;-61
2023/08/01 09:11:38;;;;;;;6.10;4.15;;;;;;;;;;5081796;28;20684;-61
2023/08/01 09:14:03;;;;;;;8.13;4.72;;;;;;;;;;5078014;28;20015;-62
2023/08/01 09:16:34;;;;;;;7.07;4.50;;;;;;;;;;5078675;28;20449;-61
2023/08/01 09:19:00;;;;;;;7.60;4.57;;;;;;;;;;5079188;28;20044;-63
2023/08/01 09:21:28;;;;;;;7.72;4.85;;;;;;;;;;5085996;28;20070;-62
2023/08/01 09:23:55;;;;;;;8.63;4.38;;;;;;;;;;5085512;28;20055;-60
2023/08/01 09:26:21;;;;;;;6.80;4.15;;;;;;;;;;5080911;28;20035;-61
2023/08/01 09:28:58;;;;;;;7.93;4.53;;;;;;;;;;5077409;28;20024;-65
2023/08/01 09:31:28;;;;;;;7.25;4.50;;;;;;;;;;5081985;28;20120;-64
2023/08/01 09:33:53;;;;;;;8.35;4.13;;;;;;;;;;5076788;28;20016;-64
2023/08/01 09:36:22;;;;;;;8.73;4.37;;;;;;;;;;5081613;28;20019;-60
2023/08/01 09:38:47;;;;;;;9.88;4.72;;;;;;;;;;5085261;28;20285;-61
2023/08/01 09:41:19;;;;;;;7.22;4.60;;;;;;;;;;5078049;28;20024;-62
2023/08/01 09:43:45;;;;;;;10.00;4.80;;;;;;;;;;5078720;28;20056;-60
2023/08/01 09:46:11;;;;;;;8.23;4.82;;;;;;;;;;5081311;28;20217;-65
2023/08/01 09:48:36;;;;;;;10.75;4.28;;;;;;;;;;5078471;28;20016;-59
2023/08/01 09:51:11;;;;;;;7.27;4.53;;;;;;;;;;5076957;28;20027;-60
2023/08/01 09:53:49;;;;;;;8.20;4.82;;;;;;;;;;5094581;27;20476;-61
2023/08/01 09:56:17;;;;;;;6.55;4.20;;;;;;;;;;5076104;28;20150;-61
2023/08/01 09:58:43;;;;;;;8.00;4.72;;;;;;;;;;5076129;28;20024;-64
2023/08/01 10:01:10;;;;;;;7.40;4.70;;;;;;;;;;5078098;28;20012;-60
2023/08/01 10:03:36;;;;;;;6.45;4.22;;;;;;;;;;5078010;28;20015;-61
2023/08/01 10:06:01;;;;;;;7.67;4.60;;;;;;;;;;5077944;28;20050;-60
2023/08/01 10:08:28;;;;;;;6.35;4.40;;;;;;;;;;5074292;28;20125;-60
2023/08/01 10:10:56;;;;;;;7.10;4.05;;;;;;;;;;5084300;28;20047;-61
2023/08/01 10:13:23;;;;;;;11.07;4.47;;;;;;;;;;5081617;28;20034;-64
2023/08/01 10:15:49;;;;;;;8.25;4.15;;;;;;;;;;5079098;28;20098;-65
2023/08/01 10:18:17;;;;;;;8.38;4.53;;;;;;;;;;5077875;28;20051;-63
2023/08/01 10:20:49;;;;;;;7.88;4.57;;;;;;;;;;5036431;28;20404;-61
2023/08/01 10:23:15;;;;;;;8.68;4.65;;;;;;;;;;5023091;28;20037;-60
2023/08/01 10:25:43;;;;;;;8.20;4.53;;;;;;;;;;5041147;28;20716;-60
2023/08/01 10:28:08;;;;;;;8.80;4.70;;;;;;;;;;5029029;28;20049;-64
2023/08/01 10:30:34;;;;;;;8.48;4.95;;;;;;;;;;5028071;28;20136;-61
2023/08/01 10:33:02;;;;;;;7.43;4.47;;;;;;;;;;5016915;28;20026;-61
2023/08/01 10:35:37;;;;;;;7.88;4.82;;;;;;;;;;5026572;28;20900;-63
2023/08/01 10:38:11;;;;;;;8.02;4.72;;;;;;;;;;5024860;28;20108;-63
2023/08/01 10:40:37;;;;;;;8.85;5.38;;;;;;;;;;5017962;28;20116;-62
2023/08/01 10:43:03;;;;;;;8.73;4.65;;;;;;;;;;5026663;28;20025;-62
2023/08/01 10:45:30;;;;;;;10.43;4.93;;;;;;;;;;5026710;28;20040;-60
2023/08/01 10:48:09;;;;;;;8.77;4.82;;;;;;;;;;5028061;28;20152;-61
2023/08/01 10:50:34;;;;;;;9.48;5.05;;;;;;;;;;5027369;28;20017;-62
2023/08/01 10:53:04;;;;;;;9.20;4.80;;;;;;;;;;5031393;28;20029;-62
2023/08/01 10:55:38;;;;;;;9.10;5.20;;;;;;;;;;5025798;28;20256;-65
2023/08/01 10:58:04;;;;;;;9.13;5.50;;;;;;;;;;5023259;28;20029;-61
2023/08/01 11:00:31;;;;;;;10.95;7.00;;;;;;;;;;5021392;28;20017;-62
2023/08/01 11:02:56;;;;;;;13.38;8.68;;;;;;;;;;5027178;28;20361;-60
2023/08/01 11:05:26;;;;;;;12.63;9.87;;;;;;;;;;5026841;28;20063;-65
2023/08/01 11:07:55;;;;;;;13.60;11.18;;;;;;;;;;5026860;28;20055;-61
2023/08/01 11:10:21;;;;;;;18.05;15.45;;;;;;;;;;5024216;28;20063;-65
2023/08/01 11:12:46;;;;;;;11.87;9.27;;;;;;;;;;5030215;28;20025;-62
2023/08/01 11:15:13;;;;;;;12.82;7.78;;;;;;;;;;5027390;28;21026;-62
2023/08/01 11:17:39;;;;;;;11.43;6.63;;;;;;;;;;5025929;28;20758;-61
2023/08/01 11:20:05;;;;;;;12.65;5.82;;;;;;;;;;5027194;28;20516;-61
2023/08/01 11:22:30;;;;;;;11.15;5.47;;;;;;;;;;5020885;28;20833;-62
2023/08/01 11:24:55;;;;;;;10.18;5.30;;;;;;;;;;5025189;28;20025;-64
2023/08/01 11:27:21;;;;;;;8.73;5.10;;;;;;;;;;5023267;28;20032;-60
2023/08/01 11:29:46;;;;;;;8.77;5.27;;;;;;;;;;5026151;28;20629;-61
2023/08/01 11:32:12;;;;;;;9.03;5.10;;;;;;;;;;5013928;28;20035;-62
2023/08/01 11:34:43;;;;;;;14.48;5.60;;;;;;;;;;5010346;28;20264;-62
2023/08/01 11:37:08;;;;;;;13.13;5.50;;;;;;;;;;5015211;28;20025;-61
2023/08/01 11:39:37;;;;;;;10.33;5.57;;;;;;;;;;5011845;28;20060;-61
2023/08/01 11:42:04;;;;;;;9.15;6.07;;;;;;;;;;5034300;28;20283;-64
2023/08/01 11:44:30;;;;;;;9.20;5.47;;;;;;;;;;5020820;28;20100;-63
2023/08/01 11:46:55;;;;;;;11.93;5.80;;;;;;;;;;5018955;28;20026;-65
2023/08/01 11:49:21;;;;;;;9.95;6.00;;;;;;;;;;5007458;28;20028;-61
2023/08/01 11:51:46;;;;;;;13.53;5.80;;;;;;;;;;5021903;28;20020;-61
2023/08/01 11:54:14;;;;;;;10.20;5.67;;;;;;;;;;5017958;28;20025;-61
2023/08/01 11:56:42;;;;;;;10.60;6.20;;;;;;;;;;5018091;28;20277;-65
2023/08/01 11:59:11;;;;;;;10.27;5.68;;;;;;;;;;5020038;28;20057;-62
2023/08/01 12:01:40;;;;;;;13.55;6.38;;;;;;;;;;5014805;28;20064;-64
2023/08/01 12:04:05;;;;;;;12.50;6.05;;;;;;;;;;5007697;28;20080;-65
2023/08/01 12:06:31;;;;;;;11.38;6.40;;;;;;;;;;5009558;28;20128;-62
2023/08/01 12:09:07;;;;;;;9.18;5.97;;;;;;;;;;5014215;28;20028;-62
2023/08/01 12:11:32;;;;;;;11.15;6.05;;;;;;;;;;5009628;28;20029;-62
2023/08/01 12:14:00;;;;;;;8.87;5.47;;;;;;;;;;5018784;28;20020;-62
2023/08/01 12:16:25;;;;;;;10.93;5.90;;;;;;;;;;5017143;28;20339;-63
2023/08/01 12:18:51;;;;;;;8.70;5.77;;;;;;;;;;5018679;28;20819;-62
2023/08/01 12:21:18;;;;;;;10.03;5.53;;;;;;;;;;5012548;28;20264;-62
2023/08/01 12:23:44;;;;;;;12.38;6.05;;;;;;;;;;5012692;28;20263;-60
2023/08/01 12:26:09;;;;;;;9.90;5.93;;;;;;;;;;5015159;28;20025;-61
2023/08/01 12:28:35;;;;;;;11.00;5.85;;;;;;;;;;5004822;28;20104;-61
2023/08/01 12:31:00;;;;;;;9.05;5.30;;;;;;;;;;5006222;28;20430;-60
2023/08/01 12:33:25;;;;;;;8.90;5.43;;;;;;;;;;5009571;28;20779;-60
2023/08/01 12:35:53;;;;;;;9.85;5.55;;;;;;;;;;5010481;28;20331;-62
2023/08/01 12:38:18;;;;;;;10.10;5.60;;;;;;;;;;5011817;28;20025;-60
2023/08/01 12:40:46;;;;;;;8.87;5.93;;;;;;;;;;5018763;28;20144;-62
2023/08/01 12:43:16;;;;;;;9.90;5.97;;;;;;;;;;5015433;28;20281;-61
2023/08/01 12:45:41;;;;;;;10.20;5.63;;;;;;;;;;5016185;28;20144;-62
2023/08/01 12:48:06;;;;;;;10.57;5.93;;;;;;;;;;5011709;28;20017;-64
2023/08/01 12:50:32;;;;;;;10.03;5.67;;;;;;;;;;5010567;28;20202;-61
2023/08/01 12:52:59;;;;;;;9.17;6.03;;;;;;;;;;5013801;28;20084;-64
2023/08/01 12:55:25;;;;;;;10.88;5.90;;;;;;;;;;5015566;28;20068;-62
2023/08/01 12:57:55;;;;;;;12.52;5.70;;;;;;;;;;5015107;28;20096;-64
2023/08/01 13:00:20;;;;;;;12.88;5.68;;;;;;;;;;5010388;28;20041;-63
2023/08/01 13:02:49;;;;;;;8.13;5.53;;;;;;;;;;5012287;28;20428;-65
2023/08/01 13:05:16;;;;;;;10.65;5.57;;;;;;;;;;5008280;28;20487;-63
2023/08/01 13:07:42;;;;;;;7.80;5.30;;;;;;;;;;5008715;28;20026;-62
2023/08/01 13:10:09;;;;;;;10.67;5.47;;;;;;;;;;5006722;28;20029;-65
2023/08/01 13:12:34;;;;;;;7.82;5.45;;;;;;;;;;5009270;28;20528;-60
2023/08/01 13:15:00;;;;;;;8.00;5.10;;;;;;;;;;5014652;28;20029;-64
2023/08/01 13:17:25;;;;;;;8.13;4.90;;;;;;;;;;5011260;28;20260;-64
2023/08/01 13:19:50;;;;;;;8.53;5.40;;;;;;;;;;5010724;28;20849;-62
2023/08/01 13:22:16;;;;;;;9.13;5.22;;;;;;;;;;5011086;28;20032;-64
2023/08/01 13:24:41;;;;;;;8.70;5.77;;;;;;;;;;5010749;28;20132;-62
2023/08/01 13:27:08;;;;;;;9.33;4.97;;;;;;;;;;5006629;28;20668;-61
2023/08/01 13:29:33;;;;;;;9.10;5.72;;;;;;;;;;5009352;28;20674;-66
2023/08/01 13:31:59;;;;;;;8.03;5.73;;;;;;;;;;5011034;28;20063;-61
2023/08/01 13:34:24;;;;;;;8.77;5.87;;;;;;;;;;5011016;28;20033;-62
2023/08/01 13:36:52;;;;;;;8.45;5.78;;;;;;;;;;5008640;28;20267;-60
2023/08/01 13:39:19;;;;;;;11.18;5.93;;;;;;;;;;5012233;28;20029;-63
2023/08/01 13:41:45;;;;;;;9.73;5.97;;;;;;;;;;5015240;28;20131;-62
2023/08/01 13:44:10;;;;;;;8.83;6.40;;;;;;;;;;5009889;28;20022;-63
2023/08/01 13:46:35;;;;;;;12.27;6.70;;;;;;;;;;5012254;28;21218;-64
2023/08/01 13:49:00;;;;;;;9.30;6.10;;;;;;;;;;5000319;28;20259;-63
2023/08/01 13:51:26;;;;;;;8.87;6.13;;;;;;;;;;5010542;28;20652;-64
2023/08/01 13:53:51;;;;;;;9.15;5.85;;;;;;;;;;5009188;28;20030;-61
2023/08/01 13:56:16;;;;;;;8.23;6.10;;;;;;;;;;5008551;28;20021;-62
2023/08/01 13:58:41;;;;;;;9.80;6.60;;;;;;;;;;5011514;28;20110;-66
2023/08/01 14:01:10;;;;;;;10.50;6.50;;;;;;;;;;5007796;28;20021;-61
2023/08/01 14:03:39;;;;;;;9.80;6.30;;;;;;;;;;5015256;28;20026;-64
2023/08/01 14:06:11;;;;;;;9.93;6.53;;;;;;;;;;5011106;28;20041;-63
2023/08/01 14:08:36;;;;;;;11.63;6.60;;;;;;;;;;5008764;28;20025;-62
2023/08/01 14:11:05;;;;;;;10.23;6.65;;;;;;;;;;5010965;28;20080;-65
2023/08/01 14:13:31;;;;;;;9.13;6.45;;;;;;;;;;5011916;28;20013;-61
2023/08/01 14:15:58;;;;;;;11.02;6.28;;;;;;;;;;5012037;28;20039;-62
2023/08/01 14:18:24;;;;;;;8.27;5.70;;;;;;;;;;5011052;28;20025;-61
2023/08/01 14:20:49;;;;;;;9.67;6.30;;;;;;;;;;5008831;28;20056;-61
2023/08/01 14:23:14;;;;;;;9.47;6.33;;;;;;;;;;5009080;28;20033;-61
2023/08/01 14:25:39;;;;;;;7.38;6.25;;;;;;;;;;5008392;28;20425;-61
2023/08/01 14:28:05;;;;;;;9.07;6.40;;;;;;;;;;5006974;28;20030;-61
2023/08/01 14:30:30;;;;;;;12.07;6.80;;;;;;;;;;5014949;28;20123;-64
2023/08/01 14:33:22;;;;;;;10.00;6.60;;;;;;;;;;5009721;28;20120;-61